Aérodrome :
LOGIN :

S'inscrire | Disclaimer

   EN    FR    IT 

 










Légende :    VFR   VFR Marginal   IFR   IFR Intensif   IFR Très Intensif
Visi : 
Plafond : 
>= 8 km
>= 3000ft
5 à 8 km
1000 à 3000 ft
1500m à 5 km
500 à 1000 ft
800 à 1500m
200 à 500 ft
< 800m
< 200 ft
Symboles :   Orages  Brouillard  Fortes neiges  Fortes précipitations  Vent > 20 kt
SIGMETs :   Divers  Orages  Givrage  Turbulence  Onde Orograph.  Cendres Volcan.






- Altitude de l'aérodrome : 289 ft
- Code IATA : ZAD


LDZD - Zadar

DERNIER METAR :
  • 230100Z 11007KT 060V140 9999 FEW030 BKN070 11/10 Q1014

METARs EXPIRÉS :
  • 230030Z 12009KT 080V150 9999 -RA FEW030 SCT040 BKN060 11/10 Q1014
  • 230000Z 13009KT 100V160 9999 -RA FEW030 SCT040 BKN060 11/10 Q1014
  • 222330Z 10007KT 070V140 9999 FEW030 SCT040 BKN060 11/10 Q1014 NOSIG
  • 222300Z 09007KT 050V140 9999 -RA FEW025 SCT033 BKN060 12/10 Q1014 NOSIG

TAF TAF LDZD
Valide du 23 à 00h jusqu'au 24 à 00h UTC


222325Z 2300/2400 12010KT 9999 SCT030 TX17/2313Z TN10/2304Z
PROB40
TEMPO 2300/2308 RA
PROB30
TEMPO 2300/2303 TSRA FEW025CB BKN035
PROB40
TEMPO 2309/2318 12015G25KT



MET'MAP, la Météo Aéronautique d'un coup d'oeil ! - Copyright ORBIFLY Décembre 2007 - Disclaimer

ORBIFLY MET'MAP TEAM :

Programmation & Développement : Alexandra Zaïnal
Conception & Développement : Baudouin d'Aumeries
Co-Programmation & Développement : Marc-Olivier Méhu
Soutien technique & logistique : Manuel Goepfert

Contact : metmap@orbifly.com




SOURCES & CREDITS :

   NOAA